createdAt,value
2022-08-22T00:00:24.715Z,9.68
2022-08-22T00:02:56.595Z,8.70
2022-08-22T00:03:03.230Z,8.27
2022-08-22T00:03:10.645Z,10.90
2022-08-22T00:03:11.074Z,9.30
2022-08-22T00:03:15.539Z,8.30
2022-08-22T00:03:17.338Z,6.55
2022-08-22T00:05:59.755Z,6.20
2022-08-22T00:08:45.431Z,9.40
2022-08-22T00:11:25.876Z,9.85
2022-08-22T00:14:14.905Z,10.55
2022-08-22T00:16:54.278Z,9.55
2022-08-22T00:19:56.739Z,10.00
2022-08-22T00:22:40.909Z,10.95
2022-08-22T00:25:24.612Z,10.05
2022-08-22T00:28:21.495Z,10.23
2022-08-22T00:31:03.407Z,11.57
2022-08-22T00:33:56.816Z,10.90
2022-08-22T00:36:26.203Z,11.85
2022-08-22T00:39:10.190Z,11.23
2022-08-22T00:41:58.413Z,10.02
2022-08-22T00:45:01.170Z,8.45
2022-08-22T00:47:51.623Z,9.35
2022-08-22T00:50:54.070Z,11.63
2022-08-22T00:53:39.509Z,10.02
2022-08-22T00:56:36.072Z,10.20
2022-08-22T00:59:27.674Z,10.00
2022-08-22T01:02:27.596Z,9.88
2022-08-22T01:05:00.353Z,10.05
2022-08-22T01:07:39.275Z,9.10
2022-08-22T01:10:28.121Z,6.50
2022-08-22T01:13:16.160Z,11.52
2022-08-22T01:19:35.995Z,11.82
2022-08-22T01:22:44.978Z,8.88
2022-08-22T01:25:32.443Z,7.32
2022-08-22T01:28:22.880Z,9.95
2022-08-22T01:31:19.783Z,8.93
2022-08-22T01:34:05.385Z,10.02
2022-08-22T01:36:45.924Z,10.18
2022-08-22T01:39:29.036Z,10.27
2022-08-22T01:42:06.179Z,7.93
2022-08-22T01:44:39.126Z,6.93
2022-08-22T01:47:23.183Z,4.90
2022-08-22T01:49:58.928Z,12.13
2022-08-22T01:52:46.678Z,11.13
2022-08-22T01:55:26.615Z,11.38
2022-08-22T01:57:58.972Z,10.50
2022-08-22T02:00:35.093Z,12.37
2022-08-22T02:03:23.706Z,11.45
2022-08-22T02:05:59.322Z,12.52
2022-08-22T02:08:32.241Z,10.95
2022-08-22T02:11:13.216Z,11.93
2022-08-22T02:14:03.741Z,9.07
2022-08-22T02:16:39.142Z,10.02
2022-08-22T02:19:14.514Z,8.02
2022-08-22T02:21:51.382Z,8.48
2022-08-22T02:24:33.661Z,10.23
2022-08-22T02:27:04.395Z,10.25
2022-08-22T02:29:56.379Z,9.13
2022-08-22T02:32:33.763Z,7.60
2022-08-22T02:35:17.452Z,8.95
2022-08-22T02:37:47.335Z,8.85
2022-08-22T02:40:22.484Z,7.85
2022-08-22T02:43:07.653Z,9.35
2022-08-22T02:45:43.690Z,8.05
2022-08-22T02:48:32.776Z,9.82
2022-08-22T02:51:10.372Z,8.98
2022-08-22T02:53:40.200Z,8.30
2022-08-22T02:56:17.045Z,9.10
2022-08-22T02:59:29.241Z,9.27
2022-08-22T03:01:56.734Z,7.50
2022-08-22T03:04:32.765Z,8.65
2022-08-22T03:07:04.054Z,8.52
2022-08-22T03:09:47.629Z,7.85
2022-08-22T03:12:19.000Z,8.30
2022-08-22T03:15:23.307Z,8.70
2022-08-22T03:18:04.812Z,8.70
2022-08-22T03:20:41.044Z,8.43
2022-08-22T03:23:16.070Z,8.60
2022-08-22T03:26:07.646Z,7.82
2022-08-22T03:28:59.041Z,8.02
2022-08-22T03:31:29.256Z,8.02
2022-08-22T03:34:15.089Z,8.55
2022-08-22T03:37:07.016Z,11.10
2022-08-22T03:40:01.452Z,10.68
2022-08-22T03:43:06.034Z,9.07
2022-08-22T03:48:46.584Z,9.23
2022-08-22T03:51:51.921Z,8.30
2022-08-22T03:54:24.970Z,8.90
2022-08-22T03:57:45.429Z,8.60
2022-08-22T04:00:36.843Z,8.75
2022-08-22T04:03:36.895Z,8.32
2022-08-22T04:06:35.558Z,7.72
2022-08-22T04:09:24.560Z,7.82
2022-08-22T04:12:14.296Z,7.45
2022-08-22T04:14:47.982Z,7.72
2022-08-22T04:20:07.054Z,7.75
2022-08-22T04:23:01.663Z,7.72
2022-08-22T04:25:36.591Z,7.13
2022-08-22T04:28:10.661Z,7.40
2022-08-22T04:30:56.448Z,7.32
2022-08-22T04:33:32.491Z,7.45
2022-08-22T04:36:10.515Z,6.78
2022-08-22T04:38:44.770Z,6.30
2022-08-22T04:41:18.667Z,6.45
2022-08-22T04:43:51.202Z,7.20
2022-08-22T04:46:23.292Z,7.55
2022-08-22T04:49:08.215Z,6.88
2022-08-22T04:51:46.864Z,7.13
2022-08-22T04:54:44.056Z,6.78
2022-08-22T04:57:22.793Z,6.47
2022-08-22T04:59:51.165Z,6.88
2022-08-22T05:02:24.480Z,7.68
2022-08-22T05:05:00.567Z,7.30
2022-08-22T05:07:36.230Z,6.55
2022-08-22T05:10:13.874Z,7.65
2022-08-22T05:13:00.832Z,7.38
2022-08-22T05:15:37.877Z,6.07
2022-08-22T05:18:16.959Z,5.90
2022-08-22T05:20:49.241Z,5.43
2022-08-22T05:23:36.734Z,6.32
2022-08-22T05:26:06.169Z,7.55
2022-08-22T05:28:43.985Z,6.88
2022-08-22T05:31:18.601Z,6.35
2022-08-22T05:34:04.940Z,6.68
2022-08-22T05:36:37.243Z,6.20
2022-08-22T05:39:16.596Z,7.15
2022-08-22T05:41:45.023Z,5.68
2022-08-22T05:44:25.937Z,6.53
2022-08-22T05:47:19.146Z,6.03
2022-08-22T05:49:57.802Z,5.95
2022-08-22T05:52:33.367Z,5.70
2022-08-22T05:55:26.731Z,5.40
2022-08-22T05:58:13.146Z,5.57
2022-08-22T06:00:44.797Z,5.60
2022-08-22T06:03:39.227Z,5.75
2022-08-22T06:06:17.886Z,5.18
2022-08-22T06:08:56.277Z,5.65
2022-08-22T06:11:34.038Z,5.40
2022-08-22T06:14:32.692Z,5.22
2022-08-22T06:17:09.132Z,4.57
2022-08-22T06:19:40.584Z,4.72
2022-08-22T06:22:08.595Z,4.13
2022-08-22T06:24:40.769Z,4.93
2022-08-22T06:27:14.606Z,4.78
2022-08-22T06:29:49.212Z,4.05
2022-08-22T06:32:44.502Z,4.32
2022-08-22T06:35:22.626Z,3.92
2022-08-22T06:37:51.874Z,5.40
2022-08-22T06:40:19.300Z,4.60
2022-08-22T06:42:51.725Z,4.80
2022-08-22T06:45:23.014Z,5.18
2022-08-22T06:48:00.281Z,5.20
2022-08-22T06:50:35.054Z,4.60
2022-08-22T06:53:07.909Z,5.38
2022-08-22T06:55:39.376Z,5.97
2022-08-22T06:58:12.600Z,5.95
2022-08-22T07:00:42.815Z,5.10
2022-08-22T07:03:12.767Z,4.93
2022-08-22T07:05:43.132Z,4.60
2022-08-22T07:08:20.700Z,5.72
2022-08-22T07:10:58.869Z,5.68
2022-08-22T07:13:28.659Z,6.03
2022-08-22T07:16:00.119Z,6.75
2022-08-22T07:18:29.955Z,6.68
2022-08-22T07:21:04.623Z,6.95
2022-08-22T07:23:40.282Z,7.03
2022-08-22T07:26:26.591Z,7.57
2022-08-22T07:29:05.054Z,6.15
2022-08-22T07:31:34.893Z,6.97
2022-08-22T07:34:20.270Z,6.88
2022-08-22T07:37:05.880Z,7.43
2022-08-22T07:39:43.188Z,6.68
2022-08-22T07:42:21.851Z,6.68
2022-08-22T07:44:51.798Z,6.82
2022-08-22T07:47:26.321Z,6.25
2022-08-22T07:50:00.472Z,6.60
2022-08-22T07:52:34.566Z,6.95
2022-08-22T07:55:25.842Z,6.07
2022-08-22T07:57:58.591Z,6.85
2022-08-22T08:00:29.891Z,6.40
2022-08-22T08:03:02.054Z,7.35
2022-08-22T08:05:33.086Z,6.10
2022-08-22T08:08:07.011Z,5.70
2022-08-22T08:10:37.680Z,5.38
2022-08-22T08:13:13.488Z,6.15
2022-08-22T08:15:45.697Z,5.90
2022-08-22T08:18:19.659Z,6.00
2022-08-22T08:20:55.135Z,5.80
2022-08-22T08:23:23.917Z,6.30
2022-08-22T08:25:58.218Z,6.65
2022-08-22T08:28:34.803Z,6.70
2022-08-22T08:31:19.138Z,7.35
2022-08-22T08:33:48.744Z,7.68
2022-08-22T08:36:50.269Z,7.38
2022-08-22T08:39:23.497Z,6.93
2022-08-22T08:42:15.370Z,6.50
2022-08-22T08:45:09.832Z,7.32
2022-08-22T08:48:14.363Z,7.25
2022-08-22T08:50:50.222Z,7.25
2022-08-22T08:53:57.564Z,8.23
2022-08-22T08:56:44.952Z,7.60
2022-08-22T08:59:34.946Z,8.48
2022-08-22T09:05:31.491Z,13.10
2022-08-22T09:08:18.540Z,11.75
2022-08-22T09:11:12.009Z,12.35
2022-08-22T09:17:42.859Z,10.50
2022-08-22T09:20:31.397Z,9.73
2022-08-22T09:23:26.321Z,10.57
2022-08-22T09:25:55.968Z,9.35
2022-08-22T09:28:32.727Z,10.77
2022-08-22T09:31:16.910Z,10.50
2022-08-22T09:33:59.987Z,8.73
2022-08-22T09:36:56.693Z,9.55
2022-08-22T09:39:31.882Z,8.43
2022-08-22T09:42:51.407Z,9.15
2022-08-22T09:45:50.067Z,9.65
2022-08-22T09:48:35.397Z,7.85
2022-08-22T09:51:32.166Z,7.97
2022-08-22T09:54:02.636Z,8.40
2022-08-22T09:56:59.092Z,7.43
2022-08-22T09:59:50.371Z,7.88
2022-08-22T10:02:44.787Z,7.78
2022-08-22T10:05:35.281Z,6.78
2022-08-22T10:08:46.234Z,7.93
2022-08-22T10:11:13.314Z,7.80
2022-08-22T10:14:00.550Z,7.28
2022-08-22T10:16:49.949Z,8.05
2022-08-22T10:19:46.190Z,7.90
2022-08-22T10:22:34.500Z,6.93
2022-08-22T10:25:25.135Z,6.95
2022-08-22T10:28:10.778Z,7.93
2022-08-22T10:31:16.171Z,7.93
2022-08-22T10:34:09.879Z,8.43
2022-08-22T10:36:36.939Z,6.70
2022-08-22T10:39:09.482Z,7.63
2022-08-22T10:42:03.685Z,6.95
2022-08-22T10:44:49.362Z,8.10
2022-08-22T10:47:22.525Z,7.03
2022-08-22T10:49:54.893Z,6.93
2022-08-22T10:52:30.937Z,7.00
2022-08-22T10:55:13.827Z,7.75
2022-08-22T10:58:17.959Z,7.53
2022-08-22T11:00:54.503Z,6.80
2022-08-22T11:03:47.870Z,7.90
2022-08-22T11:06:19.704Z,6.88
2022-08-22T11:08:46.742Z,7.55
2022-08-22T11:11:23.083Z,7.43
2022-08-22T11:14:33.295Z,7.10
2022-08-22T11:17:27.525Z,7.05
2022-08-22T11:20:25.911Z,7.45
2022-08-22T11:26:06.123Z,6.65
2022-08-22T11:29:16.817Z,8.23
2022-08-22T11:32:05.953Z,7.68
2022-08-22T11:34:42.295Z,6.53
2022-08-22T11:37:43.383Z,7.95
2022-08-22T11:40:32.065Z,7.32
2022-08-22T11:43:03.212Z,6.75
2022-08-22T11:45:41.213Z,6.95
2022-08-22T11:48:15.114Z,6.32
2022-08-22T11:51:17.605Z,7.68
2022-08-22T11:54:12.429Z,6.95
2022-08-22T11:56:50.333Z,7.00
2022-08-22T11:59:28.798Z,7.43
2022-08-22T12:02:01.552Z,6.68
2022-08-22T12:04:46.987Z,6.55
2022-08-22T12:07:13.933Z,6.53
2022-08-22T12:09:52.294Z,6.35
2022-08-22T12:12:25.547Z,6.40
2022-08-22T12:15:09.216Z,6.53
2022-08-22T12:18:03.593Z,6.20
2022-08-22T12:20:34.135Z,6.85
2022-08-22T12:23:43.502Z,6.32
2022-08-22T12:26:25.835Z,6.00
2022-08-22T12:29:15.221Z,6.40
2022-08-22T12:31:58.855Z,7.10
2022-08-22T12:34:34.833Z,6.45
2022-08-22T12:37:30.344Z,6.93
2022-08-22T12:40:19.948Z,6.13
2022-08-22T12:43:18.754Z,6.50
2022-08-22T12:45:56.907Z,6.65
2022-08-22T12:48:49.354Z,6.07
2022-08-22T12:51:55.793Z,6.70
2022-08-22T12:54:27.351Z,6.68
2022-08-22T12:57:03.011Z,6.25
2022-08-22T12:59:40.867Z,6.85
2022-08-22T13:02:19.311Z,6.22
2022-08-22T13:05:11.853Z,5.53
2022-08-22T13:07:57.717Z,6.10
2022-08-22T13:10:44.957Z,5.40
2022-08-22T13:13:38.710Z,6.13
2022-08-22T13:16:13.489Z,6.07
2022-08-22T13:18:53.927Z,5.60
2022-08-22T13:21:35.939Z,5.72
2022-08-22T13:24:39.211Z,6.03
2022-08-22T13:27:50.576Z,5.00
2022-08-22T13:30:33.815Z,6.00
2022-08-22T13:33:35.189Z,5.82
2022-08-22T13:36:07.244Z,5.90
2022-08-22T13:38:52.275Z,5.88
2022-08-22T13:41:28.309Z,6.03
2022-08-22T13:44:05.075Z,5.85
2022-08-22T13:46:35.543Z,5.43
2022-08-22T13:49:08.058Z,5.97
2022-08-22T13:51:54.231Z,6.00
2022-08-22T13:54:27.562Z,5.78
2022-08-22T13:57:05.266Z,5.35
2022-08-22T13:59:51.529Z,6.00
2022-08-22T14:02:43.381Z,5.65
2022-08-22T14:05:17.085Z,5.35
2022-08-22T14:07:58.291Z,5.45
2022-08-22T14:10:30.833Z,5.20
2022-08-22T14:12:57.945Z,6.15
2022-08-22T14:15:45.909Z,5.38
2022-08-22T14:18:30.339Z,5.88
2022-08-22T14:21:20.263Z,6.43
2022-08-22T14:23:52.175Z,5.75
2022-08-22T14:26:47.273Z,5.50
2022-08-22T14:29:18.690Z,5.40
2022-08-22T14:32:06.080Z,4.88
2022-08-22T14:34:40.026Z,5.15
2022-08-22T14:37:21.295Z,5.38
2022-08-22T14:40:12.429Z,5.22
2022-08-22T14:42:39.476Z,5.15
2022-08-22T14:45:17.553Z,4.57
2022-08-22T14:48:30.659Z,4.47
2022-08-22T14:51:00.544Z,5.30
2022-08-22T14:53:35.097Z,5.15
2022-08-22T14:56:10.885Z,4.45
2022-08-22T14:59:04.872Z,4.63
2022-08-22T15:01:50.962Z,4.75
2022-08-22T15:04:45.853Z,4.78
2022-08-22T15:07:24.076Z,5.50
2022-08-22T15:09:58.886Z,5.63
2022-08-22T15:12:32.911Z,5.68
2022-08-22T15:15:49.816Z,5.55
2022-08-22T15:18:30.232Z,5.60
2022-08-22T15:21:24.206Z,5.80
2022-08-22T15:23:55.247Z,6.03
2022-08-22T15:26:50.815Z,6.00
2022-08-22T15:29:22.890Z,5.82
2022-08-22T15:31:52.462Z,5.65
2022-08-22T15:34:39.655Z,5.65
2022-08-22T15:37:20.148Z,5.10
2022-08-22T15:40:02.713Z,5.50
2022-08-22T15:42:44.781Z,5.82
2022-08-22T15:45:36.211Z,5.50
2022-08-22T15:48:10.116Z,5.65
2022-08-22T15:50:39.585Z,5.28
2022-08-22T15:53:11.314Z,6.50
2022-08-22T15:56:01.792Z,6.20
2022-08-22T15:58:37.452Z,6.32
2022-08-22T16:01:12.600Z,6.00
2022-08-22T16:04:14.126Z,5.70
2022-08-22T16:06:51.416Z,5.20
2022-08-22T16:09:33.468Z,6.10
2022-08-22T16:12:04.586Z,5.63
2022-08-22T16:14:34.512Z,6.05
2022-08-22T16:17:02.629Z,6.22
2022-08-22T16:19:32.031Z,6.40
2022-08-22T16:22:01.876Z,5.97
2022-08-22T16:24:33.880Z,5.18
2022-08-22T16:27:25.052Z,5.30
2022-08-22T16:30:07.458Z,5.45
2022-08-22T16:32:35.521Z,5.13
2022-08-22T16:35:02.575Z,5.53
2022-08-22T16:37:56.042Z,5.15
2022-08-22T16:40:25.600Z,5.10
2022-08-22T16:43:12.705Z,5.15
2022-08-22T16:45:42.397Z,5.40
2022-08-22T16:48:36.998Z,5.38
2022-08-22T16:51:09.723Z,5.40
2022-08-22T16:53:45.770Z,5.32
2022-08-22T16:56:32.701Z,5.28
2022-08-22T16:59:23.734Z,5.25
2022-08-22T17:02:23.780Z,6.07
2022-08-22T17:04:57.328Z,5.53
2022-08-22T17:07:43.878Z,5.45
2022-08-22T17:10:34.887Z,5.72
2022-08-22T17:13:06.696Z,6.25
2022-08-22T17:15:55.845Z,5.75
2022-08-22T17:18:44.905Z,5.15
2022-08-22T17:21:30.580Z,5.38
2022-08-22T17:24:32.399Z,5.43
2022-08-22T17:27:14.304Z,5.50
2022-08-22T17:29:58.987Z,5.78
2022-08-22T17:32:59.128Z,5.72
2022-08-22T17:35:55.316Z,4.80
2022-08-22T17:38:31.012Z,5.13
2022-08-22T17:41:02.053Z,5.63
2022-08-22T17:43:33.421Z,6.03
2022-08-22T17:46:36.162Z,5.17
2022-08-22T17:49:30.417Z,5.13
2022-08-22T17:52:06.710Z,5.55
2022-08-22T17:54:37.225Z,5.45
2022-08-22T17:57:12.828Z,5.55
2022-08-22T17:59:46.134Z,5.70
2022-08-22T18:05:07.479Z,6.25
2022-08-22T18:08:37.304Z,5.68
2022-08-22T18:11:12.605Z,5.60
2022-08-22T18:13:53.000Z,5.20
2022-08-22T18:16:34.944Z,6.45
2022-08-22T18:19:20.454Z,6.10
2022-08-22T18:21:53.034Z,5.43
2022-08-22T18:24:36.869Z,5.72
2022-08-22T18:27:34.981Z,5.43
2022-08-22T18:30:17.411Z,6.10
2022-08-22T18:32:54.860Z,5.80
2022-08-22T18:35:31.748Z,6.60
2022-08-22T18:38:19.228Z,6.65
2022-08-22T18:40:53.727Z,6.35
2022-08-22T18:43:44.784Z,6.07
2022-08-22T18:46:31.965Z,5.63
2022-08-22T18:49:15.553Z,6.53
2022-08-22T18:51:44.125Z,6.07
2022-08-22T18:54:11.835Z,5.53
2022-08-22T18:56:57.652Z,5.97
2022-08-22T19:00:10.747Z,5.80
2022-08-22T19:03:03.702Z,6.10
2022-08-22T19:05:46.137Z,6.10
2022-08-22T19:08:31.435Z,7.80
2022-08-22T19:11:17.010Z,6.50
2022-08-22T19:14:05.971Z,5.82
2022-08-22T19:16:51.231Z,6.50
2022-08-22T19:19:53.451Z,5.93
2022-08-22T19:22:22.813Z,5.88
2022-08-22T19:25:11.122Z,6.10
2022-08-22T19:27:42.463Z,6.28
2022-08-22T19:30:44.547Z,6.43
2022-08-22T19:33:34.606Z,6.35
2022-08-22T19:36:12.604Z,6.75
2022-08-22T19:39:00.270Z,6.15
2022-08-22T19:41:51.011Z,5.40
2022-08-22T19:44:21.178Z,6.05
2022-08-22T19:47:17.698Z,5.03
2022-08-22T19:49:55.440Z,5.95
2022-08-22T19:53:00.398Z,5.60
2022-08-22T19:55:37.067Z,4.97
2022-08-22T19:58:33.448Z,5.40
2022-08-22T20:01:25.559Z,6.28
2022-08-22T20:04:01.410Z,6.13
2022-08-22T20:06:43.872Z,6.68
2022-08-22T20:09:30.517Z,6.50
2022-08-22T20:12:16.714Z,5.57
2022-08-22T20:14:45.933Z,5.82
2022-08-22T20:17:25.141Z,5.03
2022-08-22T20:20:28.011Z,5.43
2022-08-22T20:23:11.759Z,5.70
2022-08-22T20:25:51.366Z,5.03
2022-08-22T20:28:34.174Z,5.45
2022-08-22T20:31:03.680Z,5.13
2022-08-22T20:33:58.316Z,5.80
2022-08-22T20:36:28.315Z,6.70
2022-08-22T20:39:18.517Z,8.10
2022-08-22T20:42:03.611Z,7.78
2022-08-22T20:44:53.429Z,5.97
2022-08-22T20:47:26.670Z,7.78
2022-08-22T20:50:10.538Z,8.32
2022-08-22T20:52:54.309Z,6.65
2022-08-22T20:55:31.290Z,7.15
2022-08-22T20:58:20.968Z,7.60
2022-08-22T21:00:52.979Z,9.00
2022-08-22T21:03:30.366Z,9.65
2022-08-22T21:06:17.386Z,9.13
2022-08-22T21:08:46.555Z,8.77
2022-08-22T21:11:40.636Z,7.85
2022-08-22T21:14:22.247Z,8.25
2022-08-22T21:16:50.412Z,7.63
2022-08-22T21:19:20.354Z,8.27
2022-08-22T21:21:47.657Z,6.65
2022-08-22T21:24:15.052Z,8.77
2022-08-22T21:26:54.097Z,8.55
2022-08-22T21:29:26.810Z,7.97
2022-08-22T21:32:14.867Z,9.13
2022-08-22T21:34:44.622Z,9.00
2022-08-22T21:37:26.237Z,7.63
2022-08-22T21:40:18.079Z,9.35
2022-08-22T21:43:00.600Z,10.85
2022-08-22T21:45:47.211Z,8.52
2022-08-22T21:48:46.288Z,7.95
2022-08-22T21:51:42.295Z,8.55
2022-08-22T21:54:30.303Z,8.32
2022-08-22T21:57:00.360Z,8.60
2022-08-22T21:59:51.037Z,9.00
2022-08-22T22:02:29.660Z,7.90
2022-08-22T22:05:00.330Z,7.10
2022-08-22T22:07:29.170Z,6.50
2022-08-22T22:09:56.573Z,9.10
2022-08-22T22:12:24.643Z,11.10
2022-08-22T22:14:51.954Z,10.32
2022-08-22T22:17:19.905Z,10.77
2022-08-22T22:19:47.375Z,9.77
2022-08-22T22:22:14.477Z,8.75
2022-08-22T22:24:45.086Z,8.43
2022-08-22T22:27:16.785Z,7.57
2022-08-22T22:29:44.191Z,8.10
2022-08-22T22:32:11.348Z,7.38
2022-08-22T22:34:39.497Z,7.65
2022-08-22T22:37:08.752Z,7.25
2022-08-22T22:39:36.945Z,6.00
2022-08-22T22:42:05.088Z,6.75
2022-08-22T22:44:32.275Z,5.88
2022-08-22T22:47:02.972Z,5.85
2022-08-22T22:49:31.794Z,5.38
2022-08-22T22:51:59.963Z,6.13
2022-08-22T22:54:27.575Z,6.65
2022-08-22T22:56:58.654Z,7.53
2022-08-22T22:59:28.106Z,6.90
2022-08-22T23:02:11.114Z,6.57
2022-08-22T23:04:41.292Z,5.40
2022-08-22T23:07:10.038Z,7.22
2022-08-22T23:09:38.469Z,7.72
2022-08-22T23:12:13.746Z,9.45
2022-08-22T23:14:41.042Z,12.02
2022-08-22T23:17:08.390Z,10.52
2022-08-22T23:19:35.930Z,13.95
2022-08-22T23:22:03.103Z,13.50
2022-08-22T23:24:31.376Z,13.13
2022-08-22T23:26:59.330Z,9.88
2022-08-22T23:29:26.362Z,9.75
2022-08-22T23:31:57.480Z,9.00
2022-08-22T23:34:31.932Z,6.28
2022-08-22T23:37:01.550Z,6.65
2022-08-22T23:39:30.368Z,6.88
2022-08-22T23:41:59.102Z,6.50
2022-08-22T23:44:32.663Z,7.93
2022-08-22T23:49:29.656Z,6.80
2022-08-22T23:51:57.191Z,6.38
2022-08-22T23:54:24.466Z,6.30
2022-08-22T23:56:54.987Z,6.68
2022-08-22T23:59:26.477Z,6.45
